sensor_id;sensor_type;location;lat;lon;timestamp;temperature;humidity
9658;DHT22;4867;48.112;11.622;2023-02-22T00:00:54;4.80;99.90
9658;DHT22;4867;48.112;11.622;2023-02-22T00:03:30;4.80;99.90
9658;DHT22;4867;48.112;11.622;2023-02-22T00:06:02;4.70;99.90
9658;DHT22;4867;48.112;11.622;2023-02-22T00:08:33;4.70;99.90
9658;DHT22;4867;48.112;11.622;2023-02-22T00:11:06;4.70;99.90
9658;DHT22;4867;48.112;11.622;2023-02-22T00:13:38;4.60;99.90
9658;DHT22;4867;48.112;11.622;2023-02-22T00:16:05;4.60;99.90
9658;DHT22;4867;48.112;11.622;2023-02-22T00:18:33;4.60;99.90
9658;DHT22;4867;48.112;11.622;2023-02-22T00:21:00;4.60;99.90
9658;DHT22;4867;48.112;11.622;2023-02-22T00:23:29;4.50;99.90
9658;DHT22;4867;48.112;11.622;2023-02-22T00:25:58;4.50;99.90
9658;DHT22;4867;48.112;11.622;2023-02-22T00:28:25;4.50;99.90
9658;DHT22;4867;48.112;11.622;2023-02-22T00:30:53;4.50;99.90
9658;DHT22;4867;48.112;11.622;2023-02-22T00:33:21;4.40;99.90
9658;DHT22;4867;48.112;11.622;2023-02-22T00:35:48;4.30;99.90
9658;DHT22;4867;48.112;11.622;2023-02-22T00:38:18;4.20;99.90
9658;DHT22;4867;48.112;11.622;2023-02-22T00:40:45;4.10;99.90
9658;DHT22;4867;48.112;11.622;2023-02-22T00:43:13;4.10;99.90
9658;DHT22;4867;48.112;11.622;2023-02-22T00:45:41;4.00;99.90
9658;DHT22;4867;48.112;11.622;2023-02-22T00:48:09;3.90;99.90
9658;DHT22;4867;48.112;11.622;2023-02-22T00:50:36;3.90;99.90
9658;DHT22;4867;48.112;11.622;2023-02-22T00:53:04;3.90;99.90
9658;DHT22;4867;48.112;11.622;2023-02-22T00:55:34;3.90;99.90
9658;DHT22;4867;48.112;11.622;2023-02-22T00:58:03;3.90;99.90
9658;DHT22;4867;48.112;11.622;2023-02-22T01:03:00;3.90;99.90
9658;DHT22;4867;48.112;11.622;2023-02-22T01:05:29;4.00;99.90
9658;DHT22;4867;48.112;11.622;2023-02-22T01:07:57;4.00;99.90
9658;DHT22;4867;48.112;11.622;2023-02-22T01:10:29;4.00;99.90
9658;DHT22;4867;48.112;11.622;2023-02-22T01:12:58;3.90;99.90
9658;DHT22;4867;48.112;11.622;2023-02-22T01:15:27;3.90;99.90
9658;DHT22;4867;48.112;11.622;2023-02-22T01:17:58;3.80;99.90
9658;DHT22;4867;48.112;11.622;2023-02-22T01:20:26;3.80;99.90
9658;DHT22;4867;48.112;11.622;2023-02-22T01:22:56;3.80;99.90
9658;DHT22;4867;48.112;11.622;2023-02-22T01:25:25;3.80;99.90
9658;DHT22;4867;48.112;11.622;2023-02-22T01:27:54;3.80;99.90
9658;DHT22;4867;48.112;11.622;2023-02-22T01:30:24;3.90;99.90
9658;DHT22;4867;48.112;11.622;2023-02-22T01:32:52;3.80;99.90
9658;DHT22;4867;48.112;11.622;2023-02-22T01:35:31;3.80;99.90
9658;DHT22;4867;48.112;11.622;2023-02-22T01:37:59;3.90;99.90
9658;DHT22;4867;48.112;11.622;2023-02-22T01:40:32;3.90;99.90
9658;DHT22;4867;48.112;11.622;2023-02-22T01:43:02;3.90;99.90
9658;DHT22;4867;48.112;11.622;2023-02-22T01:48:04;3.80;99.90
9658;DHT22;4867;48.112;11.622;2023-02-22T01:50:36;3.80;99.90
9658;DHT22;4867;48.112;11.622;2023-02-22T01:53:05;3.80;99.90
9658;DHT22;4867;48.112;11.622;2023-02-22T01:55:34;3.70;99.90
9658;DHT22;4867;48.112;11.622;2023-02-22T01:58:03;3.70;99.90
9658;DHT22;4867;48.112;11.622;2023-02-22T02:00:31;3.70;99.90
9658;DHT22;4867;48.112;11.622;2023-02-22T02:03:03;3.70;99.90
9658;DHT22;4867;48.112;11.622;2023-02-22T02:05:33;3.70;99.90
9658;DHT22;4867;48.112;11.622;2023-02-22T02:08:09;3.60;99.90
9658;DHT22;4867;48.112;11.622;2023-02-22T02:10:41;3.60;99.90
9658;DHT22;4867;48.112;11.622;2023-02-22T02:13:09;3.50;99.90
9658;DHT22;4867;48.112;11.622;2023-02-22T02:15:37;3.50;99.90
9658;DHT22;4867;48.112;11.622;2023-02-22T02:18:09;3.40;99.90
9658;DHT22;4867;48.112;11.622;2023-02-22T02:37:56;3.10;99.90
9658;DHT22;4867;48.112;11.622;2023-02-22T02:40:44;3.10;99.90
9658;DHT22;4867;48.112;11.622;2023-02-22T02:43:38;3.10;99.90
9658;DHT22;4867;48.112;11.622;2023-02-22T02:48:46;3.10;99.90
9658;DHT22;4867;48.112;11.622;2023-02-22T02:51:16;3.20;99.90
9658;DHT22;4867;48.112;11.622;2023-02-22T02:53:46;3.20;99.90
9658;DHT22;4867;48.112;11.622;2023-02-22T02:56:14;3.20;99.90
9658;DHT22;4867;48.112;11.622;2023-02-22T02:58:44;3.20;99.90
9658;DHT22;4867;48.112;11.622;2023-02-22T03:07:30;3.20;99.90
9658;DHT22;4867;48.112;11.622;2023-02-22T03:18:14;3.10;99.90
9658;DHT22;4867;48.112;11.622;2023-02-22T03:23:40;3.00;99.90
9658;DHT22;4867;48.112;11.622;2023-02-22T03:26:19;2.90;99.90
9658;DHT22;4867;48.112;11.622;2023-02-22T03:28:54;2.80;99.90
9658;DHT22;4867;48.112;11.622;2023-02-22T03:31:25;2.80;99.90
9658;DHT22;4867;48.112;11.622;2023-02-22T03:33:59;2.80;99.90
9658;DHT22;4867;48.112;11.622;2023-02-22T03:36:33;2.80;99.90
9658;DHT22;4867;48.112;11.622;2023-02-22T03:39:08;2.80;99.90
9658;DHT22;4867;48.112;11.622;2023-02-22T03:41:37;2.80;99.90
9658;DHT22;4867;48.112;11.622;2023-02-22T03:44:11;2.80;99.90
9658;DHT22;4867;48.112;11.622;2023-02-22T03:46:41;2.80;99.90
9658;DHT22;4867;48.112;11.622;2023-02-22T03:49:35;2.80;99.90
9658;DHT22;4867;48.112;11.622;2023-02-22T03:52:05;2.80;99.90
9658;DHT22;4867;48.112;11.622;2023-02-22T03:54:35;2.80;99.90
9658;DHT22;4867;48.112;11.622;2023-02-22T03:57:09;2.80;99.90
9658;DHT22;4867;48.112;11.622;2023-02-22T03:59:41;2.80;99.90
9658;DHT22;4867;48.112;11.622;2023-02-22T04:02:09;2.80;99.90
9658;DHT22;4867;48.112;11.622;2023-02-22T04:04:37;2.80;99.90
9658;DHT22;4867;48.112;11.622;2023-02-22T04:07:04;2.90;99.90
9658;DHT22;4867;48.112;11.622;2023-02-22T04:09:32;2.90;99.90
9658;DHT22;4867;48.112;11.622;2023-02-22T04:11:59;2.90;99.90
9658;DHT22;4867;48.112;11.622;2023-02-22T04:14:27;2.90;99.90
9658;DHT22;4867;48.112;11.622;2023-02-22T04:16:56;2.90;99.90
9658;DHT22;4867;48.112;11.622;2023-02-22T04:19:24;2.90;99.90
9658;DHT22;4867;48.112;11.622;2023-02-22T04:21:51;2.90;99.90
9658;DHT22;4867;48.112;11.622;2023-02-22T04:24:24;2.90;99.90
9658;DHT22;4867;48.112;11.622;2023-02-22T04:26:52;2.90;99.90
9658;DHT22;4867;48.112;11.622;2023-02-22T04:29:21;2.90;99.90
9658;DHT22;4867;48.112;11.622;2023-02-22T04:31:49;2.90;99.90
9658;DHT22;4867;48.112;11.622;2023-02-22T04:34:16;2.80;99.90
9658;DHT22;4867;48.112;11.622;2023-02-22T04:36:43;2.80;99.90
9658;DHT22;4867;48.112;11.622;2023-02-22T04:39:11;2.80;99.90
9658;DHT22;4867;48.112;11.622;2023-02-22T04:41:39;2.80;99.90
9658;DHT22;4867;48.112;11.622;2023-02-22T04:44:06;2.80;99.90
9658;DHT22;4867;48.112;11.622;2023-02-22T04:46:34;2.80;99.90
9658;DHT22;4867;48.112;11.622;2023-02-22T04:49:02;2.80;99.90
9658;DHT22;4867;48.112;11.622;2023-02-22T04:51:32;2.70;99.90
9658;DHT22;4867;48.112;11.622;2023-02-22T04:54:02;2.70;99.90
9658;DHT22;4867;48.112;11.622;2023-02-22T04:56:32;2.70;99.90
9658;DHT22;4867;48.112;11.622;2023-02-22T04:58:59;2.70;99.90
9658;DHT22;4867;48.112;11.622;2023-02-22T05:01:31;2.60;99.90
9658;DHT22;4867;48.112;11.622;2023-02-22T05:04:01;2.60;99.90
9658;DHT22;4867;48.112;11.622;2023-02-22T05:06:29;2.60;99.90
9658;DHT22;4867;48.112;11.622;2023-02-22T05:08:56;2.60;99.90
9658;DHT22;4867;48.112;11.622;2023-02-22T05:11:23;2.60;99.90
9658;DHT22;4867;48.112;11.622;2023-02-22T05:13:50;2.60;99.90
9658;DHT22;4867;48.112;11.622;2023-02-22T05:16:17;2.60;99.90
9658;DHT22;4867;48.112;11.622;2023-02-22T05:18:45;2.60;99.90
9658;DHT22;4867;48.112;11.622;2023-02-22T05:21:12;2.50;99.90
9658;DHT22;4867;48.112;11.622;2023-02-22T05:23:40;2.60;99.90
9658;DHT22;4867;48.112;11.622;2023-02-22T05:26:07;2.60;99.90
9658;DHT22;4867;48.112;11.622;2023-02-22T05:28:38;2.60;99.90
9658;DHT22;4867;48.112;11.622;2023-02-22T05:31:05;2.60;99.90
9658;DHT22;4867;48.112;11.622;2023-02-22T05:33:35;2.60;99.90
9658;DHT22;4867;48.112;11.622;2023-02-22T05:36:03;2.60;99.90
9658;DHT22;4867;48.112;11.622;2023-02-22T05:38:30;2.60;99.90
9658;DHT22;4867;48.112;11.622;2023-02-22T05:40:57;2.50;99.90
9658;DHT22;4867;48.112;11.622;2023-02-22T05:43:24;2.50;99.90
9658;DHT22;4867;48.112;11.622;2023-02-22T05:45:52;2.50;99.90
9658;DHT22;4867;48.112;11.622;2023-02-22T05:48:19;2.40;99.90
9658;DHT22;4867;48.112;11.622;2023-02-22T05:50:48;2.40;99.90
9658;DHT22;4867;48.112;11.622;2023-02-22T05:53:16;2.40;99.90
9658;DHT22;4867;48.112;11.622;2023-02-22T05:55:43;2.40;99.90
9658;DHT22;4867;48.112;11.622;2023-02-22T05:58:12;2.40;99.90
9658;DHT22;4867;48.112;11.622;2023-02-22T06:00:39;2.40;99.90
9658;DHT22;4867;48.112;11.622;2023-02-22T06:03:09;2.40;99.90
9658;DHT22;4867;48.112;11.622;2023-02-22T06:05:39;2.40;99.90
9658;DHT22;4867;48.112;11.622;2023-02-22T06:08:07;2.40;99.90
9658;DHT22;4867;48.112;11.622;2023-02-22T06:10:34;2.40;99.90
9658;DHT22;4867;48.112;11.622;2023-02-22T06:13:02;2.50;99.90
9658;DHT22;4867;48.112;11.622;2023-02-22T06:15:30;2.50;99.90
9658;DHT22;4867;48.112;11.622;2023-02-22T06:17:58;2.50;99.90
9658;DHT22;4867;48.112;11.622;2023-02-22T06:20:29;2.50;99.90
9658;DHT22;4867;48.112;11.622;2023-02-22T06:22:57;2.50;99.90
9658;DHT22;4867;48.112;11.622;2023-02-22T06:25:27;2.50;99.90
9658;DHT22;4867;48.112;11.622;2023-02-22T06:27:58;2.50;99.90
9658;DHT22;4867;48.112;11.622;2023-02-22T06:30:27;2.50;99.90
9658;DHT22;4867;48.112;11.622;2023-02-22T06:32:54;2.50;99.90
9658;DHT22;4867;48.112;11.622;2023-02-22T06:35:21;2.50;99.90
9658;DHT22;4867;48.112;11.622;2023-02-22T06:37:48;2.60;99.90
9658;DHT22;4867;48.112;11.622;2023-02-22T06:40:16;2.60;99.90
9658;DHT22;4867;48.112;11.622;2023-02-22T06:42:43;2.60;99.90
9658;DHT22;4867;48.112;11.622;2023-02-22T06:45:13;2.70;99.90
9658;DHT22;4867;48.112;11.622;2023-02-22T06:47:40;2.70;99.90
9658;DHT22;4867;48.112;11.622;2023-02-22T06:50:26;2.80;99.90
9658;DHT22;4867;48.112;11.622;2023-02-22T06:52:55;2.90;99.90
9658;DHT22;4867;48.112;11.622;2023-02-22T06:55:25;2.90;99.90
9658;DHT22;4867;48.112;11.622;2023-02-22T06:57:52;3.00;99.90
9658;DHT22;4867;48.112;11.622;2023-02-22T07:00:21;3.10;99.90
9658;DHT22;4867;48.112;11.622;2023-02-22T07:02:50;3.20;99.90
9658;DHT22;4867;48.112;11.622;2023-02-22T07:05:20;3.20;99.90
9658;DHT22;4867;48.112;11.622;2023-02-22T07:07:50;3.30;99.90
9658;DHT22;4867;48.112;11.622;2023-02-22T07:10:23;3.30;99.90
9658;DHT22;4867;48.112;11.622;2023-02-22T07:12:50;3.40;99.90
9658;DHT22;4867;48.112;11.622;2023-02-22T07:15:24;3.50;99.90
9658;DHT22;4867;48.112;11.622;2023-02-22T07:17:52;3.60;99.90
9658;DHT22;4867;48.112;11.622;2023-02-22T07:20:20;3.60;99.90
9658;DHT22;4867;48.112;11.622;2023-02-22T07:22:48;3.80;99.90
9658;DHT22;4867;48.112;11.622;2023-02-22T07:25:16;3.80;99.90
9658;DHT22;4867;48.112;11.622;2023-02-22T07:27:43;4.00;99.90
9658;DHT22;4867;48.112;11.622;2023-02-22T07:30:19;4.10;99.90
9658;DHT22;4867;48.112;11.622;2023-02-22T07:32:46;4.20;99.90
9658;DHT22;4867;48.112;11.622;2023-02-22T07:35:28;4.30;99.90
9658;DHT22;4867;48.112;11.622;2023-02-22T07:37:57;4.40;99.90
9658;DHT22;4867;48.112;11.622;2023-02-22T07:40:25;4.50;99.90
9658;DHT22;4867;48.112;11.622;2023-02-22T07:45:41;4.80;99.90
9658;DHT22;4867;48.112;11.622;2023-02-22T07:48:08;4.90;99.90
9658;DHT22;4867;48.112;11.622;2023-02-22T07:50:35;5.00;99.90
9658;DHT22;4867;48.112;11.622;2023-02-22T07:53:05;5.00;99.90
9658;DHT22;4867;48.112;11.622;2023-02-22T07:55:33;5.20;99.90
9658;DHT22;4867;48.112;11.622;2023-02-22T07:58:02;5.30;99.90
9658;DHT22;4867;48.112;11.622;2023-02-22T08:00:33;5.40;99.90
9658;DHT22;4867;48.112;11.622;2023-02-22T08:03:03;5.60;99.90
9658;DHT22;4867;48.112;11.622;2023-02-22T08:05:31;5.60;99.90
9658;DHT22;4867;48.112;11.622;2023-02-22T08:07:59;5.70;99.90
9658;DHT22;4867;48.112;11.622;2023-02-22T08:10:27;5.80;99.90
9658;DHT22;4867;48.112;11.622;2023-02-22T08:12:54;6.00;99.90
9658;DHT22;4867;48.112;11.622;2023-02-22T08:15:25;6.10;99.90
9658;DHT22;4867;48.112;11.622;2023-02-22T08:17:55;6.10;99.90
9658;DHT22;4867;48.112;11.622;2023-02-22T08:20:24;6.20;99.90
9658;DHT22;4867;48.112;11.622;2023-02-22T08:22:51;6.40;99.90
9658;DHT22;4867;48.112;11.622;2023-02-22T08:25:20;6.40;99.90
9658;DHT22;4867;48.112;11.622;2023-02-22T08:27:48;6.50;99.90
9658;DHT22;4867;48.112;11.622;2023-02-22T08:30:22;6.60;99.90
9658;DHT22;4867;48.112;11.622;2023-02-22T08:32:49;6.70;99.90
9658;DHT22;4867;48.112;11.622;2023-02-22T08:35:18;6.70;99.90
9658;DHT22;4867;48.112;11.622;2023-02-22T08:37:48;6.90;99.90
9658;DHT22;4867;48.112;11.622;2023-02-22T08:40:18;7.10;99.90
9658;DHT22;4867;48.112;11.622;2023-02-22T08:42:45;7.10;99.90
9658;DHT22;4867;48.112;11.622;2023-02-22T08:45:13;7.30;99.90
9658;DHT22;4867;48.112;11.622;2023-02-22T08:47:40;7.50;99.90
9658;DHT22;4867;48.112;11.622;2023-02-22T08:50:08;7.60;99.90
9658;DHT22;4867;48.112;11.622;2023-02-22T08:52:37;7.80;99.90
9658;DHT22;4867;48.112;11.622;2023-02-22T08:55:04;8.00;99.90
9658;DHT22;4867;48.112;11.622;2023-02-22T08:57:32;8.10;99.90
9658;DHT22;4867;48.112;11.622;2023-02-22T08:59:59;8.20;99.90
9658;DHT22;4867;48.112;11.622;2023-02-22T09:02:26;8.40;99.90
9658;DHT22;4867;48.112;11.622;2023-02-22T09:04:53;8.40;99.90
9658;DHT22;4867;48.112;11.622;2023-02-22T09:07:20;8.50;99.90
9658;DHT22;4867;48.112;11.622;2023-02-22T09:09:48;8.60;99.90
9658;DHT22;4867;48.112;11.622;2023-02-22T09:12:15;8.90;99.90
9658;DHT22;4867;48.112;11.622;2023-02-22T09:14:42;8.90;99.90
9658;DHT22;4867;48.112;11.622;2023-02-22T09:17:09;9.10;99.90
9658;DHT22;4867;48.112;11.622;2023-02-22T09:19:36;9.20;99.90
9658;DHT22;4867;48.112;11.622;2023-02-22T09:22:03;9.30;99.90
9658;DHT22;4867;48.112;11.622;2023-02-22T09:24:31;9.50;99.90
9658;DHT22;4867;48.112;11.622;2023-02-22T09:26:58;9.60;99.90
9658;DHT22;4867;48.112;11.622;2023-02-22T09:29:27;9.70;99.90
9658;DHT22;4867;48.112;11.622;2023-02-22T09:31:55;9.90;99.90
9658;DHT22;4867;48.112;11.622;2023-02-22T09:34:25;10.00;99.90
9658;DHT22;4867;48.112;11.622;2023-02-22T09:36:56;10.10;99.90
9658;DHT22;4867;48.112;11.622;2023-02-22T09:39:24;10.20;99.90
9658;DHT22;4867;48.112;11.622;2023-02-22T09:42:27;10.30;99.90
9658;DHT22;4867;48.112;11.622;2023-02-22T09:45:02;10.40;99.90
9658;DHT22;4867;48.112;11.622;2023-02-22T09:47:46;10.50;99.90
9658;DHT22;4867;48.112;11.622;2023-02-22T09:50:21;10.70;99.90
9658;DHT22;4867;48.112;11.622;2023-02-22T09:52:56;10.70;99.90
9658;DHT22;4867;48.112;11.622;2023-02-22T09:55:27;10.90;99.90
9658;DHT22;4867;48.112;11.622;2023-02-22T09:58:00;10.90;99.90
9658;DHT22;4867;48.112;11.622;2023-02-22T10:00:33;11.00;99.90
9658;DHT22;4867;48.112;11.622;2023-02-22T10:03:33;11.10;99.90
9658;DHT22;4867;48.112;11.622;2023-02-22T10:06:12;11.20;99.90
9658;DHT22;4867;48.112;11.622;2023-02-22T10:08:42;11.30;99.90
9658;DHT22;4867;48.112;11.622;2023-02-22T10:11:27;11.40;99.90
9658;DHT22;4867;48.112;11.622;2023-02-22T10:14:22;11.60;99.90
9658;DHT22;4867;48.112;11.622;2023-02-22T10:16:58;11.80;99.90
9658;DHT22;4867;48.112;11.622;2023-02-22T10:19:40;11.90;99.90
9658;DHT22;4867;48.112;11.622;2023-02-22T10:25:14;12.10;99.90
9658;DHT22;4867;48.112;11.622;2023-02-22T10:27:57;12.20;99.90
9658;DHT22;4867;48.112;11.622;2023-02-22T10:30:38;12.40;99.90
9658;DHT22;4867;48.112;11.622;2023-02-22T10:33:16;12.50;99.90
9658;DHT22;4867;48.112;11.622;2023-02-22T10:35:45;12.60;99.90
9658;DHT22;4867;48.112;11.622;2023-02-22T10:38:18;12.70;99.90
9658;DHT22;4867;48.112;11.622;2023-02-22T10:40:59;12.80;99.90
9658;DHT22;4867;48.112;11.622;2023-02-22T10:43:28;12.90;99.90
9658;DHT22;4867;48.112;11.622;2023-02-22T10:45:59;13.00;99.90
9658;DHT22;4867;48.112;11.622;2023-02-22T10:48:30;13.00;99.90
9658;DHT22;4867;48.112;11.622;2023-02-22T10:51:00;13.10;99.90
9658;DHT22;4867;48.112;11.622;2023-02-22T10:53:29;13.30;99.90
9658;DHT22;4867;48.112;11.622;2023-02-22T10:56:17;13.40;99.90
9658;DHT22;4867;48.112;11.622;2023-02-22T11:01:32;13.60;99.90
9658;DHT22;4867;48.112;11.622;2023-02-22T11:06:28;13.90;99.90
9658;DHT22;4867;48.112;11.622;2023-02-22T11:09:19;14.00;99.90
9658;DHT22;4867;48.112;11.622;2023-02-22T11:12:07;14.10;99.90
9658;DHT22;4867;48.112;11.622;2023-02-22T11:14:34;14.20;99.90
9658;DHT22;4867;48.112;11.622;2023-02-22T11:17:06;14.30;99.90
9658;DHT22;4867;48.112;11.622;2023-02-22T11:19:34;14.40;99.60
9658;DHT22;4867;48.112;11.622;2023-02-22T11:24:31;14.50;99.90
9658;DHT22;4867;48.112;11.622;2023-02-22T11:27:34;14.70;99.90
9658;DHT22;4867;48.112;11.622;2023-02-22T11:33:02;14.80;98.20
9658;DHT22;4867;48.112;11.622;2023-02-22T11:35:59;14.90;98.60
9658;DHT22;4867;48.112;11.622;2023-02-22T11:38:32;15.00;98.40
9658;DHT22;4867;48.112;11.622;2023-02-22T11:41:20;15.00;99.60
9658;DHT22;4867;48.112;11.622;2023-02-22T11:43:52;15.10;99.20
9658;DHT22;4867;48.112;11.622;2023-02-22T11:46:26;15.30;99.90
9658;DHT22;4867;48.112;11.622;2023-02-22T11:48:59;15.30;99.40
9658;DHT22;4867;48.112;11.622;2023-02-22T11:51:32;15.40;99.90
9658;DHT22;4867;48.112;11.622;2023-02-22T12:16:57;15.80;98.40
9658;DHT22;4867;48.112;11.622;2023-02-22T12:19:34;15.80;98.90
9658;DHT22;4867;48.112;11.622;2023-02-22T12:22:12;15.90;97.50
9658;DHT22;4867;48.112;11.622;2023-02-22T12:25:05;15.90;98.30
9658;DHT22;4867;48.112;11.622;2023-02-22T12:36:43;16.10;97.00
9658;DHT22;4867;48.112;11.622;2023-02-22T12:42:38;16.10;96.30
9658;DHT22;4867;48.112;11.622;2023-02-22T12:45:21;16.00;96.70
9658;DHT22;4867;48.112;11.622;2023-02-22T12:50:28;15.90;97.00
9658;DHT22;4867;48.112;11.622;2023-02-22T12:53:02;15.90;97.40
9658;DHT22;4867;48.112;11.622;2023-02-22T12:55:46;15.80;97.70
9658;DHT22;4867;48.112;11.622;2023-02-22T12:58:24;15.70;96.90
9658;DHT22;4867;48.112;11.622;2023-02-22T13:03:37;15.60;97.40
9658;DHT22;4867;48.112;11.622;2023-02-22T13:06:31;15.50;98.40
9658;DHT22;4867;48.112;11.622;2023-02-22T13:09:25;15.50;97.50
9658;DHT22;4867;48.112;11.622;2023-02-22T13:15:04;15.50;97.80
9658;DHT22;4867;48.112;11.622;2023-02-22T13:20:25;15.70;98.50
9658;DHT22;4867;48.112;11.622;2023-02-22T13:23:10;15.70;97.90
9658;DHT22;4867;48.112;11.622;2023-02-22T13:25:54;15.80;97.80
9658;DHT22;4867;48.112;11.622;2023-02-22T13:28:47;16.00;98.50
9658;DHT22;4867;48.112;11.622;2023-02-22T13:51:42;17.10;95.50
9658;DHT22;4867;48.112;11.622;2023-02-22T13:54:26;17.10;95.40
9658;DHT22;4867;48.112;11.622;2023-02-22T13:56:56;17.10;95.50
9658;DHT22;4867;48.112;11.622;2023-02-22T14:01:58;17.00;94.60
9658;DHT22;4867;48.112;11.622;2023-02-22T14:06:57;16.80;95.30
9658;DHT22;4867;48.112;11.622;2023-02-22T14:18:02;16.80;94.30
9658;DHT22;4867;48.112;11.622;2023-02-22T14:20:37;16.90;94.30
9658;DHT22;4867;48.112;11.622;2023-02-22T14:23:27;16.80;94.20
9658;DHT22;4867;48.112;11.622;2023-02-22T14:31:35;16.70;94.10
9658;DHT22;4867;48.112;11.622;2023-02-22T14:34:40;16.70;94.30
9658;DHT22;4867;48.112;11.622;2023-02-22T14:45:22;16.60;95.20
9658;DHT22;4867;48.112;11.622;2023-02-22T14:53:35;16.10;95.80
9658;DHT22;4867;48.112;11.622;2023-02-22T14:56:49;16.00;95.80
9658;DHT22;4867;48.112;11.622;2023-02-22T15:01:36;15.80;96.20
9658;DHT22;4867;48.112;11.622;2023-02-22T15:04:27;15.80;96.70
9658;DHT22;4867;48.112;11.622;2023-02-22T15:06:59;15.70;96.50
9658;DHT22;4867;48.112;11.622;2023-02-22T15:09:28;15.70;96.40
9658;DHT22;4867;48.112;11.622;2023-02-22T15:14:34;15.70;96.70
9658;DHT22;4867;48.112;11.622;2023-02-22T15:17:19;15.70;96.90
9658;DHT22;4867;48.112;11.622;2023-02-22T15:19:48;15.60;96.50
9658;DHT22;4867;48.112;11.622;2023-02-22T15:22:24;15.60;97.00
9658;DHT22;4867;48.112;11.622;2023-02-22T15:25:02;15.60;97.20
9658;DHT22;4867;48.112;11.622;2023-02-22T15:27:30;15.40;97.40
9658;DHT22;4867;48.112;11.622;2023-02-22T15:32:44;15.40;97.50
9658;DHT22;4867;48.112;11.622;2023-02-22T15:35:31;15.30;97.60
9658;DHT22;4867;48.112;11.622;2023-02-22T15:40:33;15.20;98.10
9658;DHT22;4867;48.112;11.622;2023-02-22T15:43:06;15.20;98.20
9658;DHT22;4867;48.112;11.622;2023-02-22T15:45:36;15.10;98.30
9658;DHT22;4867;48.112;11.622;2023-02-22T15:48:09;15.10;98.30
9658;DHT22;4867;48.112;11.622;2023-02-22T15:50:37;15.00;98.40
9658;DHT22;4867;48.112;11.622;2023-02-22T15:53:26;15.10;98.50
9658;DHT22;4867;48.112;11.622;2023-02-22T15:55:57;15.00;98.40
9658;DHT22;4867;48.112;11.622;2023-02-22T15:58:26;15.00;98.80
9658;DHT22;4867;48.112;11.622;2023-02-22T16:01:06;15.00;98.70
9658;DHT22;4867;48.112;11.622;2023-02-22T16:03:39;14.90;98.40
9658;DHT22;4867;48.112;11.622;2023-02-22T16:08:55;14.90;98.60
9658;DHT22;4867;48.112;11.622;2023-02-22T16:11:33;14.80;98.80
9658;DHT22;4867;48.112;11.622;2023-02-22T16:14:04;14.80;98.80
9658;DHT22;4867;48.112;11.622;2023-02-22T16:16:34;14.70;99.10
9658;DHT22;4867;48.112;11.622;2023-02-22T16:19:24;14.60;99.10
9658;DHT22;4867;48.112;11.622;2023-02-22T16:21:58;14.50;99.20
9658;DHT22;4867;48.112;11.622;2023-02-22T16:24:35;14.40;99.20
9658;DHT22;4867;48.112;11.622;2023-02-22T16:29:38;14.20;99.50
9658;DHT22;4867;48.112;11.622;2023-02-22T16:32:06;14.10;99.70
9658;DHT22;4867;48.112;11.622;2023-02-22T16:34:34;14.10;99.90
9658;DHT22;4867;48.112;11.622;2023-02-22T16:37:01;14.00;99.90
9658;DHT22;4867;48.112;11.622;2023-02-22T16:39:30;13.90;99.90
9658;DHT22;4867;48.112;11.622;2023-02-22T16:42:02;13.80;99.90
9658;DHT22;4867;48.112;11.622;2023-02-22T16:44:30;13.60;99.90
9658;DHT22;4867;48.112;11.622;2023-02-22T16:46:58;13.50;99.90
9658;DHT22;4867;48.112;11.622;2023-02-22T16:49:26;13.50;99.90
9658;DHT22;4867;48.112;11.622;2023-02-22T16:52:01;13.30;99.90
9658;DHT22;4867;48.112;11.622;2023-02-22T16:54:35;13.30;99.90
9658;DHT22;4867;48.112;11.622;2023-02-22T16:57:05;13.20;99.90
9658;DHT22;4867;48.112;11.622;2023-02-22T16:59:38;13.10;99.90
9658;DHT22;4867;48.112;11.622;2023-02-22T17:02:06;13.00;99.90
9658;DHT22;4867;48.112;11.622;2023-02-22T17:04:36;12.90;99.90
9658;DHT22;4867;48.112;11.622;2023-02-22T17:07:03;12.70;99.90
9658;DHT22;4867;48.112;11.622;2023-02-22T17:09:31;12.70;99.90
9658;DHT22;4867;48.112;11.622;2023-02-22T17:11:59;12.70;99.90
9658;DHT22;4867;48.112;11.622;2023-02-22T17:14:32;12.70;99.90
9658;DHT22;4867;48.112;11.622;2023-02-22T17:17:00;12.60;99.90
9658;DHT22;4867;48.112;11.622;2023-02-22T17:19:27;12.60;99.90
9658;DHT22;4867;48.112;11.622;2023-02-22T17:21:54;12.40;99.90
9658;DHT22;4867;48.112;11.622;2023-02-22T17:24:23;12.30;99.90
9658;DHT22;4867;48.112;11.622;2023-02-22T17:26:51;12.20;99.90
9658;DHT22;4867;48.112;11.622;2023-02-22T17:29:19;12.10;99.90
9658;DHT22;4867;48.112;11.622;2023-02-22T17:31:46;12.00;99.90
9658;DHT22;4867;48.112;11.622;2023-02-22T17:34:15;12.00;99.90
9658;DHT22;4867;48.112;11.622;2023-02-22T17:36:42;12.00;99.90
9658;DHT22;4867;48.112;11.622;2023-02-22T17:39:09;11.90;99.90
9658;DHT22;4867;48.112;11.622;2023-02-22T17:41:37;11.80;99.90
9658;DHT22;4867;48.112;11.622;2023-02-22T17:44:07;11.70;99.90
9658;DHT22;4867;48.112;11.622;2023-02-22T17:46:35;11.70;99.90
9658;DHT22;4867;48.112;11.622;2023-02-22T17:49:02;11.60;99.90
9658;DHT22;4867;48.112;11.622;2023-02-22T17:51:29;11.60;99.90
9658;DHT22;4867;48.112;11.622;2023-02-22T17:53:57;11.40;99.90
9658;DHT22;4867;48.112;11.622;2023-02-22T17:56:24;11.30;99.90
9658;DHT22;4867;48.112;11.622;2023-02-22T17:58:52;11.20;99.90
9658;DHT22;4867;48.112;11.622;2023-02-22T18:01:26;11.20;99.90
9658;DHT22;4867;48.112;11.622;2023-02-22T18:03:56;11.20;99.90
9658;DHT22;4867;48.112;11.622;2023-02-22T18:06:26;11.10;99.90
9658;DHT22;4867;48.112;11.622;2023-02-22T18:08:56;11.10;99.90
9658;DHT22;4867;48.112;11.622;2023-02-22T18:11:25;11.10;99.90
9658;DHT22;4867;48.112;11.622;2023-02-22T18:13:55;11.00;99.90
9658;DHT22;4867;48.112;11.622;2023-02-22T18:16:23;10.90;99.90
9658;DHT22;4867;48.112;11.622;2023-02-22T18:18:55;10.90;99.90
9658;DHT22;4867;48.112;11.622;2023-02-22T18:21:23;10.80;99.90
9658;DHT22;4867;48.112;11.622;2023-02-22T18:23:52;10.70;99.90
9658;DHT22;4867;48.112;11.622;2023-02-22T18:26:22;10.70;99.90
9658;DHT22;4867;48.112;11.622;2023-02-22T18:28:50;10.60;99.90
9658;DHT22;4867;48.112;11.622;2023-02-22T18:31:19;10.60;99.90
9658;DHT22;4867;48.112;11.622;2023-02-22T18:33:50;10.50;99.90
9658;DHT22;4867;48.112;11.622;2023-02-22T18:36:19;10.50;99.90
9658;DHT22;4867;48.112;11.622;2023-02-22T18:38:51;10.40;99.90
9658;DHT22;4867;48.112;11.622;2023-02-22T18:41:19;10.40;99.90
9658;DHT22;4867;48.112;11.622;2023-02-22T18:43:47;10.30;99.90
9658;DHT22;4867;48.112;11.622;2023-02-22T18:46:19;10.20;99.90
9658;DHT22;4867;48.112;11.622;2023-02-22T18:48:48;10.20;99.90
9658;DHT22;4867;48.112;11.622;2023-02-22T18:51:17;10.20;99.90
9658;DHT22;4867;48.112;11.622;2023-02-22T18:53:46;10.10;99.90
9658;DHT22;4867;48.112;11.622;2023-02-22T18:56:17;10.00;99.90
9658;DHT22;4867;48.112;11.622;2023-02-22T18:58:52;10.00;99.90
9658;DHT22;4867;48.112;11.622;2023-02-22T19:01:19;9.90;99.90
9658;DHT22;4867;48.112;11.622;2023-02-22T19:03:48;9.80;99.90
9658;DHT22;4867;48.112;11.622;2023-02-22T19:06:16;9.70;99.90
9658;DHT22;4867;48.112;11.622;2023-02-22T19:08:44;9.70;99.90
9658;DHT22;4867;48.112;11.622;2023-02-22T19:11:14;9.50;99.90
9658;DHT22;4867;48.112;11.622;2023-02-22T19:13:48;9.50;99.90
9658;DHT22;4867;48.112;11.622;2023-02-22T19:16:19;9.40;99.90